createdAt,value
2023-02-15T00:02:58.291Z,6.27
2023-02-15T00:06:02.227Z,6.10
2023-02-15T00:09:06.607Z,6.19
2023-02-15T00:12:11.669Z,6.10
2023-02-15T00:15:16.947Z,6.21
2023-02-15T00:18:20.777Z,6.13
2023-02-15T00:21:24.368Z,6.17
2023-02-15T00:24:28.327Z,6.16
2023-02-15T00:27:32.009Z,6.07
2023-02-15T00:30:37.182Z,6.08
2023-02-15T00:33:41.766Z,5.97
2023-02-15T00:36:46.347Z,6.14
2023-02-15T00:39:51.575Z,6.09
2023-02-15T00:42:55.361Z,6.04
2023-02-15T00:46:01.474Z,6.15
2023-02-15T00:49:05.878Z,6.18
2023-02-15T00:52:09.531Z,6.22
2023-02-15T00:55:13.129Z,6.05
2023-02-15T00:58:17.517Z,6.07
2023-02-15T01:01:24.704Z,6.08
2023-02-15T01:04:28.468Z,5.91
2023-02-15T01:07:34.364Z,6.09
2023-02-15T01:10:38.461Z,6.09
2023-02-15T01:13:42.837Z,6.11
2023-02-15T01:16:48.043Z,6.12
2023-02-15T01:19:52.493Z,6.19
2023-02-15T01:22:57.336Z,6.17
2023-02-15T01:26:04.392Z,6.27
2023-02-15T01:29:08.201Z,6.06
2023-02-15T01:32:13.335Z,6.09
2023-02-15T01:35:19.618Z,6.19
2023-02-15T01:38:23.943Z,6.10
2023-02-15T01:41:28.411Z,6.17
2023-02-15T01:44:53.192Z,6.25
2023-02-15T01:48:03.154Z,6.20
2023-02-15T01:51:06.957Z,6.18
2023-02-15T01:54:18.781Z,6.33
2023-02-15T01:57:26.547Z,6.35
2023-02-15T02:00:30.707Z,6.49
2023-02-15T02:03:45.706Z,6.46
2023-02-15T02:06:52.477Z,6.30
2023-02-15T02:09:56.288Z,6.30
2023-02-15T02:13:05.708Z,6.36
2023-02-15T02:16:15.565Z,6.37
2023-02-15T02:19:48.350Z,6.35
2023-02-15T02:23:18.328Z,6.21
2023-02-15T02:27:03.962Z,6.13
2023-02-15T02:30:36.687Z,6.24
2023-02-15T02:33:55.642Z,6.08
2023-02-15T02:37:06.499Z,6.25
2023-02-15T02:40:16.807Z,6.14
2023-02-15T02:43:28.904Z,6.06
2023-02-15T02:46:38.553Z,5.95
2023-02-15T02:49:45.936Z,5.94
2023-02-15T02:52:51.856Z,6.08
2023-02-15T02:55:59.387Z,5.86
2023-02-15T02:59:10.104Z,6.09
2023-02-15T03:02:19.637Z,5.96
2023-02-15T03:05:29.692Z,5.90
2023-02-15T03:08:38.292Z,5.86
2023-02-15T03:11:42.084Z,5.84
2023-02-15T03:14:49.161Z,6.09
2023-02-15T03:17:58.261Z,5.78
2023-02-15T03:21:06.232Z,5.57
2023-02-15T03:24:16.307Z,5.48
2023-02-15T03:27:24.971Z,5.52
2023-02-15T03:30:32.234Z,5.33
2023-02-15T03:33:40.878Z,5.73
2023-02-15T03:36:48.941Z,5.62
2023-02-15T03:39:57.950Z,5.71
2023-02-15T03:43:07.554Z,5.48
2023-02-15T03:46:18.145Z,5.44
2023-02-15T03:49:27.276Z,5.50
2023-02-15T03:52:34.894Z,5.75
2023-02-15T03:55:38.715Z,5.75
2023-02-15T03:58:59.716Z,5.56
2023-02-15T04:02:15.863Z,5.78
2023-02-15T04:05:19.707Z,5.41
2023-02-15T04:08:45.433Z,5.63
2023-02-15T04:11:48.086Z,5.87
2023-02-15T04:15:09.115Z,5.82
2023-02-15T04:18:13.160Z,5.76
2023-02-15T04:21:34.659Z,5.77
2023-02-15T04:24:57.006Z,5.73
2023-02-15T04:28:00.653Z,5.81
2023-02-15T04:31:04.224Z,5.72
2023-02-15T04:34:07.975Z,5.76
2023-02-15T04:37:12.586Z,5.92
2023-02-15T04:40:19.717Z,5.91
2023-02-15T04:43:23.507Z,5.85
2023-02-15T04:46:27.498Z,5.82
2023-02-15T04:49:31.065Z,5.49
2023-02-15T04:52:34.632Z,5.66
2023-02-15T04:55:39.676Z,5.75
2023-02-15T04:58:43.425Z,6.01
2023-02-15T05:01:47.034Z,5.43
2023-02-15T05:04:50.534Z,5.80
2023-02-15T05:07:54.257Z,5.95
2023-02-15T05:10:59.861Z,5.86
2023-02-15T05:14:03.414Z,5.69
2023-02-15T05:17:06.976Z,5.73
2023-02-15T05:20:11.732Z,5.68
2023-02-15T05:23:15.615Z,5.60
2023-02-15T05:26:39.747Z,5.65
2023-02-15T05:29:43.312Z,5.81
2023-02-15T05:32:47.127Z,5.76
2023-02-15T05:35:50.921Z,5.99
2023-02-15T05:38:54.580Z,5.82
2023-02-15T05:42:02.728Z,5.66
2023-02-15T05:45:07.351Z,5.76
2023-02-15T05:48:11.164Z,5.65
2023-02-15T05:51:17.090Z,5.70
2023-02-15T05:54:20.646Z,5.38
2023-02-15T05:57:25.701Z,5.50
2023-02-15T06:00:29.434Z,5.60
2023-02-15T06:03:33.121Z,5.90
2023-02-15T06:06:37.105Z,5.96
2023-02-15T06:09:40.853Z,6.15
2023-02-15T06:12:46.463Z,6.19
2023-02-15T06:15:50.325Z,6.47
2023-02-15T06:18:54.087Z,6.45
2023-02-15T06:21:57.884Z,6.61
2023-02-15T06:25:01.723Z,6.96
2023-02-15T06:28:07.247Z,7.06
2023-02-15T06:31:11.457Z,7.44
2023-02-15T06:34:15.322Z,7.55
2023-02-15T06:37:19.087Z,7.40
2023-02-15T06:40:22.984Z,7.79
2023-02-15T06:43:28.128Z,8.11
2023-02-15T06:46:31.923Z,8.27
2023-02-15T06:49:35.612Z,8.47
2023-02-15T06:52:39.464Z,8.60
2023-02-15T06:55:43.282Z,8.68
2023-02-15T06:58:50.608Z,8.86
2023-02-15T07:01:54.449Z,9.11
2023-02-15T07:04:58.268Z,9.11
2023-02-15T07:08:02.251Z,8.75
2023-02-15T07:11:20.566Z,9.32
2023-02-15T07:14:28.118Z,9.44
2023-02-15T07:17:35.924Z,9.21
2023-02-15T07:20:42.746Z,9.13
2023-02-15T07:23:46.495Z,9.43
2023-02-15T07:26:50.195Z,9.58
2023-02-15T07:29:55.401Z,10.02
2023-02-15T07:33:17.375Z,10.68
2023-02-15T07:36:21.316Z,10.63
2023-02-15T07:39:25.035Z,10.69
2023-02-15T07:42:28.736Z,10.87
2023-02-15T07:45:34.364Z,10.83
2023-02-15T07:48:39.444Z,10.56
2023-02-15T07:51:43.361Z,10.84
2023-02-15T07:54:47.130Z,10.91
2023-02-15T07:57:52.108Z,11.11
2023-02-15T08:01:02.987Z,11.30
2023-02-15T08:04:08.780Z,11.80
2023-02-15T08:07:12.566Z,11.74
2023-02-15T08:10:36.329Z,11.57
2023-02-15T08:13:54.816Z,11.64
2023-02-15T08:17:03.897Z,11.84
2023-02-15T08:20:08.810Z,12.11
2023-02-15T08:23:12.594Z,12.09
2023-02-15T08:26:18.110Z,12.60
2023-02-15T08:29:23.614Z,11.64
2023-02-15T08:32:29.264Z,11.97
2023-02-15T08:35:32.922Z,12.71
2023-02-15T08:38:36.806Z,12.72
2023-02-15T08:41:42.354Z,12.90
2023-02-15T08:44:46.235Z,12.39
2023-02-15T08:47:51.478Z,12.98
2023-02-15T08:50:55.321Z,13.08
2023-02-15T08:54:01.151Z,13.58
2023-02-15T08:57:04.952Z,13.60
2023-02-15T09:00:10.213Z,12.79
2023-02-15T09:03:15.503Z,13.03
2023-02-15T09:06:19.883Z,13.69
2023-02-15T09:09:24.302Z,14.07
2023-02-15T09:12:28.042Z,14.28
2023-02-15T09:15:31.878Z,14.69
2023-02-15T09:18:39.101Z,14.54
2023-02-15T09:21:43.280Z,14.53
2023-02-15T09:24:46.948Z,14.76
2023-02-15T09:27:50.787Z,14.86
2023-02-15T09:30:54.651Z,14.67
2023-02-15T09:34:02.049Z,14.35
2023-02-15T09:37:08.067Z,14.24
2023-02-15T09:40:17.739Z,14.52
2023-02-15T09:43:32.333Z,14.49
2023-02-15T09:46:49.869Z,14.46
2023-02-15T09:50:04.471Z,14.88
2023-02-15T09:53:35.508Z,14.23
2023-02-15T09:56:46.206Z,14.22
2023-02-15T09:59:58.815Z,14.90
2023-02-15T10:03:18.825Z,15.43
2023-02-15T10:06:34.450Z,15.88
2023-02-15T10:09:51.415Z,15.56
2023-02-15T10:13:10.815Z,16.01
2023-02-15T10:16:29.219Z,15.78
2023-02-15T10:19:45.073Z,14.91
2023-02-15T10:23:11.208Z,15.57
2023-02-15T10:26:20.842Z,15.36
2023-02-15T10:29:34.364Z,15.14
2023-02-15T10:32:44.102Z,15.62
2023-02-15T10:35:56.486Z,16.10
2023-02-15T10:39:09.962Z,16.18
2023-02-15T10:42:20.160Z,16.20
2023-02-15T10:45:33.354Z,15.91
2023-02-15T10:49:13.857Z,16.30
2023-02-15T10:52:31.722Z,16.55
2023-02-15T10:55:53.444Z,16.48
2023-02-15T10:59:22.851Z,16.70
2023-02-15T11:02:38.531Z,15.95
2023-02-15T11:05:56.130Z,16.61
2023-02-15T11:09:07.441Z,16.59
2023-02-15T11:12:17.571Z,16.78
2023-02-15T11:15:28.687Z,16.89
2023-02-15T11:18:37.040Z,16.45
2023-02-15T11:21:46.012Z,16.34
2023-02-15T11:24:50.254Z,16.15
2023-02-15T11:27:57.070Z,16.33
2023-02-15T11:31:07.877Z,15.98
2023-02-15T11:34:20.071Z,15.72
2023-02-15T11:37:31.288Z,16.01
2023-02-15T11:40:38.558Z,16.40
2023-02-15T11:43:50.641Z,16.90
2023-02-15T11:46:55.214Z,16.67
2023-02-15T11:49:59.939Z,16.97
2023-02-15T11:53:07.027Z,17.02
2023-02-15T11:56:17.592Z,17.12
2023-02-15T11:59:32.738Z,17.24
2023-02-15T12:02:40.035Z,16.95
2023-02-15T12:05:48.108Z,17.02
2023-02-15T12:08:58.380Z,16.89
2023-02-15T12:12:24.338Z,16.82
2023-02-15T12:15:36.497Z,16.79
2023-02-15T12:18:43.009Z,16.47
2023-02-15T12:21:51.695Z,16.31
2023-02-15T12:24:58.778Z,16.62
2023-02-15T12:28:02.620Z,16.68
2023-02-15T12:31:21.447Z,16.93
2023-02-15T12:34:28.440Z,16.98
2023-02-15T12:37:35.992Z,16.76
2023-02-15T12:40:41.416Z,16.62
2023-02-15T12:43:46.478Z,16.11
2023-02-15T12:47:02.099Z,16.45
2023-02-15T12:50:18.190Z,16.72
2023-02-15T12:53:24.628Z,17.02
2023-02-15T12:56:29.998Z,17.06
2023-02-15T12:59:33.736Z,16.97
2023-02-15T13:02:45.359Z,16.80
2023-02-15T13:05:54.378Z,16.09
2023-02-15T13:09:00.832Z,15.64
2023-02-15T13:12:14.511Z,16.18
2023-02-15T13:15:28.943Z,16.58
2023-02-15T13:18:38.942Z,16.77
2023-02-15T13:21:46.755Z,16.62
2023-02-15T13:24:57.173Z,16.60
2023-02-15T13:28:05.077Z,16.80
2023-02-15T13:31:16.518Z,16.65
2023-02-15T13:34:27.397Z,16.71
2023-02-15T13:37:58.125Z,16.85
2023-02-15T13:41:06.604Z,16.87
2023-02-15T13:44:19.657Z,16.77
2023-02-15T13:47:29.585Z,16.35
2023-02-15T13:50:50.975Z,16.61
2023-02-15T13:54:26.367Z,16.44
2023-02-15T13:57:47.092Z,16.33
2023-02-15T14:01:01.848Z,16.60
2023-02-15T14:04:24.496Z,16.27
2023-02-15T14:07:44.466Z,16.05
2023-02-15T14:10:59.164Z,15.92
2023-02-15T14:14:29.821Z,15.81
2023-02-15T14:17:46.910Z,15.95
2023-02-15T14:21:01.909Z,15.94
2023-02-15T14:24:23.587Z,15.63
2023-02-15T14:27:40.569Z,15.88
2023-02-15T14:30:49.470Z,15.53
2023-02-15T14:33:57.751Z,15.21
2023-02-15T14:37:01.933Z,15.47
2023-02-15T14:40:32.276Z,15.51
2023-02-15T14:43:57.368Z,15.61
2023-02-15T14:47:08.619Z,15.67
2023-02-15T14:50:43.917Z,15.62
2023-02-15T14:53:48.580Z,15.54
2023-02-15T14:57:26.445Z,15.56
2023-02-15T15:00:40.767Z,15.46
2023-02-15T15:03:54.221Z,15.28
2023-02-15T15:07:08.086Z,14.91
2023-02-15T15:10:38.951Z,14.77
2023-02-15T15:14:03.043Z,14.74
2023-02-15T15:17:08.004Z,14.59
2023-02-15T15:20:17.659Z,14.61
2023-02-15T15:23:43.783Z,14.44
2023-02-15T15:26:51.994Z,14.19
2023-02-15T15:29:57.430Z,14.12
2023-02-15T15:33:15.728Z,14.15
2023-02-15T15:37:04.457Z,14.14
2023-02-15T15:40:50.470Z,14.05
2023-02-15T15:44:32.466Z,14.04
2023-02-15T15:47:58.762Z,13.92
2023-02-15T15:51:17.150Z,13.66
2023-02-15T15:54:23.247Z,13.80
2023-02-15T15:57:31.289Z,13.74
2023-02-15T16:00:43.279Z,13.73
2023-02-15T16:03:57.464Z,13.65
2023-02-15T16:07:17.148Z,13.52
2023-02-15T16:10:26.011Z,13.47
2023-02-15T16:13:30.161Z,13.42
2023-02-15T16:16:34.226Z,13.42
2023-02-15T16:19:42.638Z,13.35
2023-02-15T16:22:46.830Z,13.22
2023-02-15T16:26:03.763Z,13.05
2023-02-15T16:29:17.124Z,12.98
2023-02-15T16:32:23.826Z,12.98
2023-02-15T16:35:29.135Z,12.95
2023-02-15T16:39:02.347Z,12.91
2023-02-15T16:42:06.688Z,12.73
2023-02-15T16:45:17.378Z,12.78
2023-02-15T16:48:26.267Z,12.64
2023-02-15T16:51:34.647Z,12.59
2023-02-15T16:54:38.684Z,12.46
2023-02-15T16:57:46.466Z,12.43
2023-02-15T17:00:50.597Z,12.40
2023-02-15T17:04:13.899Z,12.25
2023-02-15T17:07:20.682Z,11.95
2023-02-15T17:10:37.656Z,11.83
2023-02-15T17:13:41.770Z,11.92
2023-02-15T17:16:50.603Z,11.70
2023-02-15T17:19:57.302Z,11.46
2023-02-15T17:23:03.137Z,11.37
2023-02-15T17:26:16.662Z,11.43
2023-02-15T17:29:34.956Z,11.49
2023-02-15T17:32:39.411Z,11.50
2023-02-15T17:35:43.088Z,11.55
2023-02-15T17:39:06.605Z,11.57
2023-02-15T17:42:10.342Z,11.54
2023-02-15T17:45:15.429Z,11.53
2023-02-15T17:48:24.319Z,11.49
2023-02-15T17:51:28.227Z,11.36
2023-02-15T17:54:50.808Z,11.25
2023-02-15T17:57:54.556Z,11.13
2023-02-15T18:01:19.277Z,11.07
2023-02-15T18:04:41.112Z,11.14
2023-02-15T18:08:02.162Z,11.02
2023-02-15T18:11:24.536Z,11.04
2023-02-15T18:14:28.363Z,11.09
2023-02-15T18:17:36.325Z,10.84
2023-02-15T18:20:41.995Z,10.88
2023-02-15T18:23:46.128Z,11.00
2023-02-15T18:26:51.837Z,10.72
2023-02-15T18:29:55.608Z,10.74
2023-02-15T18:33:01.161Z,10.78
2023-02-15T18:36:06.944Z,10.64
2023-02-15T18:39:26.060Z,10.56
2023-02-15T18:42:34.593Z,10.61
2023-02-15T18:45:40.298Z,10.53
2023-02-15T18:48:46.545Z,10.46
2023-02-15T18:51:50.466Z,10.39
2023-02-15T18:54:57.554Z,10.55
2023-02-15T18:58:03.229Z,10.54
2023-02-15T19:01:07.236Z,10.18
2023-02-15T19:04:10.966Z,9.96
2023-02-15T19:07:19.901Z,10.37
2023-02-15T19:10:25.901Z,10.22
2023-02-15T19:13:31.280Z,10.30
2023-02-15T19:16:37.883Z,10.47
2023-02-15T19:19:41.872Z,10.42
2023-02-15T19:22:46.954Z,10.51
2023-02-15T19:25:52.704Z,10.53
2023-02-15T19:28:57.887Z,10.55
2023-02-15T19:32:01.984Z,10.35
2023-02-15T19:35:06.553Z,10.33
2023-02-15T19:38:18.869Z,10.37
2023-02-15T19:41:26.364Z,10.32
2023-02-15T19:44:31.636Z,10.35
2023-02-15T19:47:35.352Z,10.14
2023-02-15T19:50:39.192Z,10.28
2023-02-15T19:53:42.940Z,10.17
2023-02-15T19:56:46.752Z,10.31
2023-02-15T19:59:52.095Z,10.21
2023-02-15T20:02:56.269Z,10.14
2023-02-15T20:06:00.098Z,9.95
2023-02-15T20:09:05.403Z,9.46
2023-02-15T20:12:21.091Z,9.61
2023-02-15T20:15:29.031Z,9.41
2023-02-15T20:18:33.031Z,9.33
2023-02-15T20:21:37.410Z,9.70
2023-02-15T20:24:41.233Z,9.73
2023-02-15T20:27:45.021Z,9.74
2023-02-15T20:30:51.060Z,9.73
2023-02-15T20:33:55.404Z,9.63
2023-02-15T20:36:59.452Z,9.57
2023-02-15T20:40:03.192Z,9.56
2023-02-15T20:43:16.571Z,9.55
2023-02-15T20:46:21.807Z,9.45
2023-02-15T20:49:26.714Z,9.28
2023-02-15T20:52:30.480Z,9.27
2023-02-15T20:55:34.301Z,9.38
2023-02-15T20:58:38.733Z,9.18
2023-02-15T21:01:44.131Z,9.47
2023-02-15T21:04:48.114Z,9.51
2023-02-15T21:07:53.134Z,9.36
2023-02-15T21:10:56.982Z,9.43
2023-02-15T21:14:00.704Z,9.38
2023-02-15T21:17:06.092Z,9.40
2023-02-15T21:20:14.683Z,9.49
2023-02-15T21:23:21.501Z,9.47
2023-02-15T21:26:25.304Z,9.43
2023-02-15T21:29:31.072Z,8.97
2023-02-15T21:32:36.960Z,9.30
2023-02-15T21:35:40.983Z,9.27
2023-02-15T21:38:45.523Z,9.10
2023-02-15T21:42:08.575Z,9.03
2023-02-15T21:45:34.066Z,9.06
2023-02-15T21:48:39.283Z,9.17
2023-02-15T21:52:00.423Z,8.73
2023-02-15T21:55:07.413Z,8.95
2023-02-15T21:58:20.443Z,8.90
2023-02-15T22:01:26.410Z,8.93
2023-02-15T22:04:32.481Z,8.61
2023-02-15T22:07:36.260Z,8.74
2023-02-15T22:10:40.393Z,8.93
2023-02-15T22:13:45.319Z,8.33
2023-02-15T22:16:49.171Z,8.39
2023-02-15T22:19:54.510Z,8.22
2023-02-15T22:22:58.385Z,8.26
2023-02-15T22:26:06.418Z,8.65
2023-02-15T22:29:15.260Z,8.55
2023-02-15T22:32:20.491Z,8.61
2023-02-15T22:35:28.159Z,8.24
2023-02-15T22:38:31.974Z,8.04
2023-02-15T22:41:35.752Z,8.27
2023-02-15T22:44:39.758Z,7.88
2023-02-15T22:47:43.547Z,7.87
2023-02-15T22:50:48.790Z,7.97
2023-02-15T22:53:53.999Z,7.91
2023-02-15T22:56:57.805Z,7.85
2023-02-15T23:00:02.041Z,7.82
2023-02-15T23:03:15.100Z,7.95
2023-02-15T23:06:20.414Z,8.09
2023-02-15T23:09:24.076Z,8.01
2023-02-15T23:12:50.456Z,7.78
2023-02-15T23:15:57.289Z,7.37
2023-02-15T23:19:01.083Z,7.58
2023-02-15T23:22:06.327Z,7.72
2023-02-15T23:25:12.304Z,7.61
2023-02-15T23:28:21.387Z,7.49
2023-02-15T23:31:27.768Z,7.71
2023-02-15T23:34:31.886Z,7.77
2023-02-15T23:37:37.010Z,7.66
2023-02-15T23:40:58.130Z,7.71
2023-02-15T23:44:04.980Z,7.53
2023-02-15T23:47:20.005Z,7.81
2023-02-15T23:50:25.863Z,7.82
2023-02-15T23:53:31.457Z,7.82
2023-02-15T23:56:35.267Z,7.88
2023-02-15T23:59:46.828Z,7.70
